sensor_id;sensor_type;location;lat;lon;timestamp;P1;durP1;ratioP1;P2;durP2;ratioP2
19879;SDS011;10102;50.828;4.416;2023-02-11T00:03:53;15.93;;;8.15;;
19879;SDS011;10102;50.828;4.416;2023-02-11T00:06:19;11.90;;;7.25;;
19879;SDS011;10102;50.828;4.416;2023-02-11T00:08:46;13.20;;;7.50;;
19879;SDS011;10102;50.828;4.416;2023-02-11T00:11:12;21.20;;;8.38;;
19879;SDS011;10102;50.828;4.416;2023-02-11T00:13:39;17.80;;;7.57;;
19879;SDS011;10102;50.828;4.416;2023-02-11T00:16:09;19.55;;;8.07;;
19879;SDS011;10102;50.828;4.416;2023-02-11T00:18:36;18.23;;;7.43;;
19879;SDS011;10102;50.828;4.416;2023-02-11T00:21:07;22.65;;;8.95;;
19879;SDS011;10102;50.828;4.416;2023-02-11T00:23:37;19.65;;;7.78;;
19879;SDS011;10102;50.828;4.416;2023-02-11T00:26:03;19.90;;;7.55;;
19879;SDS011;10102;50.828;4.416;2023-02-11T00:28:35;16.58;;;8.00;;
19879;SDS011;10102;50.828;4.416;2023-02-11T00:31:01;15.48;;;7.47;;
19879;SDS011;10102;50.828;4.416;2023-02-11T00:33:27;18.25;;;7.45;;
19879;SDS011;10102;50.828;4.416;2023-02-11T00:35:54;17.42;;;7.28;;
19879;SDS011;10102;50.828;4.416;2023-02-11T00:40:48;17.25;;;7.70;;
19879;SDS011;10102;50.828;4.416;2023-02-11T00:43:15;13.15;;;6.75;;
19879;SDS011;10102;50.828;4.416;2023-02-11T00:45:44;16.92;;;7.80;;
19879;SDS011;10102;50.828;4.416;2023-02-11T00:48:10;17.90;;;7.78;;
19879;SDS011;10102;50.828;4.416;2023-02-11T00:50:36;18.73;;;7.35;;
19879;SDS011;10102;50.828;4.416;2023-02-11T00:53:02;18.15;;;7.03;;
19879;SDS011;10102;50.828;4.416;2023-02-11T00:55:28;19.27;;;7.50;;
19879;SDS011;10102;50.828;4.416;2023-02-11T00:57:55;19.05;;;6.70;;
19879;SDS011;10102;50.828;4.416;2023-02-11T01:00:25;12.40;;;6.57;;
19879;SDS011;10102;50.828;4.416;2023-02-11T01:02:51;22.13;;;8.02;;
19879;SDS011;10102;50.828;4.416;2023-02-11T01:05:19;15.68;;;6.25;;
19879;SDS011;10102;50.828;4.416;2023-02-11T01:07:45;18.42;;;7.40;;
19879;SDS011;10102;50.828;4.416;2023-02-11T01:10:11;19.02;;;7.30;;
19879;SDS011;10102;50.828;4.416;2023-02-11T01:12:37;13.13;;;6.97;;
19879;SDS011;10102;50.828;4.416;2023-02-11T01:15:05;16.92;;;7.30;;
19879;SDS011;10102;50.828;4.416;2023-02-11T01:17:33;25.88;;;8.25;;
19879;SDS011;10102;50.828;4.416;2023-02-11T01:20:05;22.50;;;8.05;;
19879;SDS011;10102;50.828;4.416;2023-02-11T01:22:34;24.33;;;7.20;;
19879;SDS011;10102;50.828;4.416;2023-02-11T01:25:06;14.25;;;7.18;;
19879;SDS011;10102;50.828;4.416;2023-02-11T01:27:32;18.70;;;7.20;;
19879;SDS011;10102;50.828;4.416;2023-02-11T01:29:59;19.00;;;7.65;;
19879;SDS011;10102;50.828;4.416;2023-02-11T01:32:25;16.80;;;7.35;;
19879;SDS011;10102;50.828;4.416;2023-02-11T01:34:50;15.80;;;7.55;;
19879;SDS011;10102;50.828;4.416;2023-02-11T01:37:16;13.63;;;7.47;;
19879;SDS011;10102;50.828;4.416;2023-02-11T01:39:42;20.25;;;7.20;;
19879;SDS011;10102;50.828;4.416;2023-02-11T01:42:10;16.88;;;7.82;;
19879;SDS011;10102;50.828;4.416;2023-02-11T01:44:52;18.13;;;7.00;;
19879;SDS011;10102;50.828;4.416;2023-02-11T01:47:19;17.50;;;6.97;;
19879;SDS011;10102;50.828;4.416;2023-02-11T01:49:49;21.92;;;7.35;;
19879;SDS011;10102;50.828;4.416;2023-02-11T01:52:28;15.68;;;7.13;;
19879;SDS011;10102;50.828;4.416;2023-02-11T01:54:59;19.70;;;7.40;;
19879;SDS011;10102;50.828;4.416;2023-02-11T01:57:54;17.45;;;8.57;;
19879;SDS011;10102;50.828;4.416;2023-02-11T02:00:24;21.95;;;7.32;;
19879;SDS011;10102;50.828;4.416;2023-02-11T02:11:18;21.20;;;7.70;;
19879;SDS011;10102;50.828;4.416;2023-02-11T02:13:44;24.08;;;6.55;;
19879;SDS011;10102;50.828;4.416;2023-02-11T02:16:13;17.80;;;6.93;;
19879;SDS011;10102;50.828;4.416;2023-02-11T02:38:07;16.58;;;6.68;;
19879;SDS011;10102;50.828;4.416;2023-02-11T02:40:58;21.63;;;7.07;;
19879;SDS011;10102;50.828;4.416;2023-02-11T02:43:34;14.25;;;6.35;;
19879;SDS011;10102;50.828;4.416;2023-02-11T02:46:14;15.13;;;6.22;;
19879;SDS011;10102;50.828;4.416;2023-02-11T02:48:43;18.58;;;6.13;;
19879;SDS011;10102;50.828;4.416;2023-02-11T02:57:07;12.82;;;6.25;;
19879;SDS011;10102;50.828;4.416;2023-02-11T02:59:52;12.95;;;6.65;;
19879;SDS011;10102;50.828;4.416;2023-02-11T03:08:17;17.42;;;7.07;;
19879;SDS011;10102;50.828;4.416;2023-02-11T03:10:51;12.07;;;6.50;;
19879;SDS011;10102;50.828;4.416;2023-02-11T03:13:23;21.95;;;7.15;;
19879;SDS011;10102;50.828;4.416;2023-02-11T03:15:56;19.42;;;6.75;;
19879;SDS011;10102;50.828;4.416;2023-02-11T03:18:25;22.67;;;7.30;;
19879;SDS011;10102;50.828;4.416;2023-02-11T03:20:54;12.90;;;6.43;;
19879;SDS011;10102;50.828;4.416;2023-02-11T03:34:35;17.77;;;7.32;;
19879;SDS011;10102;50.828;4.416;2023-02-11T03:37:32;19.40;;;7.47;;
19879;SDS011;10102;50.828;4.416;2023-02-11T03:40:06;13.93;;;6.80;;
19879;SDS011;10102;50.828;4.416;2023-02-11T03:42:53;21.67;;;8.55;;
19879;SDS011;10102;50.828;4.416;2023-02-11T03:45:44;27.20;;;8.40;;
19879;SDS011;10102;50.828;4.416;2023-02-11T03:50:57;19.15;;;7.53;;
19879;SDS011;10102;50.828;4.416;2023-02-11T03:53:28;17.73;;;7.60;;
19879;SDS011;10102;50.828;4.416;2023-02-11T03:55:54;15.63;;;7.63;;
19879;SDS011;10102;50.828;4.416;2023-02-11T03:58:24;23.60;;;7.85;;
19879;SDS011;10102;50.828;4.416;2023-02-11T04:00:50;21.83;;;8.02;;
19879;SDS011;10102;50.828;4.416;2023-02-11T04:03:21;17.63;;;7.90;;
19879;SDS011;10102;50.828;4.416;2023-02-11T04:05:48;14.57;;;7.47;;
19879;SDS011;10102;50.828;4.416;2023-02-11T04:08:14;15.93;;;7.85;;
19879;SDS011;10102;50.828;4.416;2023-02-11T04:10:40;18.40;;;8.10;;
19879;SDS011;10102;50.828;4.416;2023-02-11T04:13:07;21.40;;;8.23;;
19879;SDS011;10102;50.828;4.416;2023-02-11T04:15:32;24.30;;;8.98;;
19879;SDS011;10102;50.828;4.416;2023-02-11T04:17:58;24.23;;;8.77;;
19879;SDS011;10102;50.828;4.416;2023-02-11T04:20:24;18.42;;;7.95;;
19879;SDS011;10102;50.828;4.416;2023-02-11T04:22:49;20.48;;;8.20;;
19879;SDS011;10102;50.828;4.416;2023-02-11T04:25:15;16.45;;;8.45;;
19879;SDS011;10102;50.828;4.416;2023-02-11T04:27:41;21.45;;;8.73;;
19879;SDS011;10102;50.828;4.416;2023-02-11T04:30:07;22.58;;;8.50;;
19879;SDS011;10102;50.828;4.416;2023-02-11T04:32:35;27.95;;;8.70;;
19879;SDS011;10102;50.828;4.416;2023-02-11T04:35:00;21.83;;;8.95;;
19879;SDS011;10102;50.828;4.416;2023-02-11T04:37:29;20.42;;;10.23;;
19879;SDS011;10102;50.828;4.416;2023-02-11T04:39:54;28.63;;;9.32;;
19879;SDS011;10102;50.828;4.416;2023-02-11T04:42:20;19.38;;;8.48;;
19879;SDS011;10102;50.828;4.416;2023-02-11T04:44:48;18.83;;;8.93;;
19879;SDS011;10102;50.828;4.416;2023-02-11T04:47:13;19.23;;;9.18;;
19879;SDS011;10102;50.828;4.416;2023-02-11T04:49:39;16.45;;;8.90;;
19879;SDS011;10102;50.828;4.416;2023-02-11T04:52:05;26.67;;;9.80;;
19879;SDS011;10102;50.828;4.416;2023-02-11T04:54:31;22.77;;;8.98;;
19879;SDS011;10102;50.828;4.416;2023-02-11T04:56:57;21.65;;;8.95;;
19879;SDS011;10102;50.828;4.416;2023-02-11T04:59:23;25.17;;;9.15;;
19879;SDS011;10102;50.828;4.416;2023-02-11T05:01:49;21.60;;;9.32;;
19879;SDS011;10102;50.828;4.416;2023-02-11T05:04:15;23.02;;;9.88;;
19879;SDS011;10102;50.828;4.416;2023-02-11T05:06:41;21.13;;;9.93;;
19879;SDS011;10102;50.828;4.416;2023-02-11T05:09:07;24.23;;;10.15;;
19879;SDS011;10102;50.828;4.416;2023-02-11T05:11:34;18.60;;;9.73;;
19879;SDS011;10102;50.828;4.416;2023-02-11T05:14:01;21.40;;;10.70;;
19879;SDS011;10102;50.828;4.416;2023-02-11T05:16:27;17.10;;;8.88;;
19879;SDS011;10102;50.828;4.416;2023-02-11T05:18:53;24.95;;;10.50;;
19879;SDS011;10102;50.828;4.416;2023-02-11T05:21:19;23.17;;;10.50;;
19879;SDS011;10102;50.828;4.416;2023-02-11T05:23:45;19.33;;;10.50;;
19879;SDS011;10102;50.828;4.416;2023-02-11T05:26:11;26.08;;;10.48;;
19879;SDS011;10102;50.828;4.416;2023-02-11T05:28:40;24.27;;;10.85;;
19879;SDS011;10102;50.828;4.416;2023-02-11T05:31:08;32.08;;;11.30;;
19879;SDS011;10102;50.828;4.416;2023-02-11T05:33:34;30.92;;;10.90;;
19879;SDS011;10102;50.828;4.416;2023-02-11T05:36:04;25.05;;;10.90;;
19879;SDS011;10102;50.828;4.416;2023-02-11T05:38:33;24.13;;;10.90;;
19879;SDS011;10102;50.828;4.416;2023-02-11T05:40:59;23.58;;;10.98;;
19879;SDS011;10102;50.828;4.416;2023-02-11T05:43:25;32.20;;;11.45;;
19879;SDS011;10102;50.828;4.416;2023-02-11T05:45:52;21.63;;;10.27;;
19879;SDS011;10102;50.828;4.416;2023-02-11T05:48:18;26.05;;;10.73;;
19879;SDS011;10102;50.828;4.416;2023-02-11T05:50:45;27.25;;;12.10;;
19879;SDS011;10102;50.828;4.416;2023-02-11T05:53:11;26.20;;;11.57;;
19879;SDS011;10102;50.828;4.416;2023-02-11T05:55:37;31.77;;;12.20;;
19879;SDS011;10102;50.828;4.416;2023-02-11T05:58:03;26.08;;;12.52;;
19879;SDS011;10102;50.828;4.416;2023-02-11T06:00:35;28.38;;;11.70;;
19879;SDS011;10102;50.828;4.416;2023-02-11T06:03:01;27.70;;;12.93;;
19879;SDS011;10102;50.828;4.416;2023-02-11T06:05:28;25.77;;;12.27;;
19879;SDS011;10102;50.828;4.416;2023-02-11T06:07:54;31.17;;;13.40;;
19879;SDS011;10102;50.828;4.416;2023-02-11T06:10:20;31.77;;;12.15;;
19879;SDS011;10102;50.828;4.416;2023-02-11T06:12:47;34.42;;;12.55;;
19879;SDS011;10102;50.828;4.416;2023-02-11T06:15:15;25.65;;;12.82;;
19879;SDS011;10102;50.828;4.416;2023-02-11T06:17:40;26.85;;;12.55;;
19879;SDS011;10102;50.828;4.416;2023-02-11T06:20:06;26.13;;;12.20;;
19879;SDS011;10102;50.828;4.416;2023-02-11T06:22:40;34.92;;;13.45;;
19879;SDS011;10102;50.828;4.416;2023-02-11T06:25:07;33.25;;;13.73;;
19879;SDS011;10102;50.828;4.416;2023-02-11T06:27:32;36.05;;;13.25;;
19879;SDS011;10102;50.828;4.416;2023-02-11T06:29:58;28.50;;;13.38;;
19879;SDS011;10102;50.828;4.416;2023-02-11T06:32:25;32.33;;;14.70;;
19879;SDS011;10102;50.828;4.416;2023-02-11T06:34:52;32.55;;;12.93;;
19879;SDS011;10102;50.828;4.416;2023-02-11T06:37:18;38.22;;;14.32;;
19879;SDS011;10102;50.828;4.416;2023-02-11T06:39:45;32.75;;;14.27;;
19879;SDS011;10102;50.828;4.416;2023-02-11T06:42:11;33.83;;;14.10;;
19879;SDS011;10102;50.828;4.416;2023-02-11T06:44:36;27.58;;;13.80;;
19879;SDS011;10102;50.828;4.416;2023-02-11T06:47:02;32.22;;;14.32;;
19879;SDS011;10102;50.828;4.416;2023-02-11T06:49:28;32.08;;;13.77;;
19879;SDS011;10102;50.828;4.416;2023-02-11T06:51:54;37.10;;;14.50;;
19879;SDS011;10102;50.828;4.416;2023-02-11T06:54:19;33.90;;;15.45;;
19879;SDS011;10102;50.828;4.416;2023-02-11T06:56:46;32.28;;;14.00;;
19879;SDS011;10102;50.828;4.416;2023-02-11T06:59:15;31.75;;;14.70;;
19879;SDS011;10102;50.828;4.416;2023-02-11T07:01:43;31.65;;;15.82;;
19879;SDS011;10102;50.828;4.416;2023-02-11T07:04:09;42.30;;;17.23;;
19879;SDS011;10102;50.828;4.416;2023-02-11T07:06:35;35.35;;;16.27;;
19879;SDS011;10102;50.828;4.416;2023-02-11T07:09:02;39.05;;;17.45;;
19879;SDS011;10102;50.828;4.416;2023-02-11T07:11:29;38.45;;;16.33;;
19879;SDS011;10102;50.828;4.416;2023-02-11T07:13:56;39.97;;;16.48;;
19879;SDS011;10102;50.828;4.416;2023-02-11T07:16:26;32.28;;;15.15;;
19879;SDS011;10102;50.828;4.416;2023-02-11T07:18:52;36.33;;;16.15;;
19879;SDS011;10102;50.828;4.416;2023-02-11T07:21:18;29.48;;;15.15;;
19879;SDS011;10102;50.828;4.416;2023-02-11T07:23:46;41.22;;;15.50;;
19879;SDS011;10102;50.828;4.416;2023-02-11T07:26:13;29.13;;;15.52;;
19879;SDS011;10102;50.828;4.416;2023-02-11T07:28:43;40.28;;;15.85;;
19879;SDS011;10102;50.828;4.416;2023-02-11T07:31:13;24.60;;;14.20;;
19879;SDS011;10102;50.828;4.416;2023-02-11T07:33:41;37.80;;;15.32;;
19879;SDS011;10102;50.828;4.416;2023-02-11T07:36:08;39.08;;;16.48;;
19879;SDS011;10102;50.828;4.416;2023-02-11T07:38:35;33.53;;;15.65;;
19879;SDS011;10102;50.828;4.416;2023-02-11T07:41:02;31.63;;;15.52;;
19879;SDS011;10102;50.828;4.416;2023-02-11T07:43:30;34.17;;;15.18;;
19879;SDS011;10102;50.828;4.416;2023-02-11T07:45:56;31.45;;;15.98;;
19879;SDS011;10102;50.828;4.416;2023-02-11T07:48:21;33.95;;;16.55;;
19879;SDS011;10102;50.828;4.416;2023-02-11T07:50:47;38.00;;;15.90;;
19879;SDS011;10102;50.828;4.416;2023-02-11T07:53:14;34.78;;;16.00;;
19879;SDS011;10102;50.828;4.416;2023-02-11T07:55:41;38.75;;;16.50;;
19879;SDS011;10102;50.828;4.416;2023-02-11T07:58:07;39.92;;;16.92;;
19879;SDS011;10102;50.828;4.416;2023-02-11T08:00:33;39.08;;;17.50;;
19879;SDS011;10102;50.828;4.416;2023-02-11T08:02:59;47.85;;;18.00;;
19879;SDS011;10102;50.828;4.416;2023-02-11T08:05:26;37.30;;;16.98;;
19879;SDS011;10102;50.828;4.416;2023-02-11T08:07:52;46.85;;;18.92;;
19879;SDS011;10102;50.828;4.416;2023-02-11T08:10:19;42.13;;;17.88;;
19879;SDS011;10102;50.828;4.416;2023-02-11T08:12:45;39.72;;;18.65;;
19879;SDS011;10102;50.828;4.416;2023-02-11T08:15:11;45.35;;;18.17;;
19879;SDS011;10102;50.828;4.416;2023-02-11T08:17:36;41.95;;;18.77;;
19879;SDS011;10102;50.828;4.416;2023-02-11T08:20:03;35.15;;;18.55;;
19879;SDS011;10102;50.828;4.416;2023-02-11T08:22:30;40.33;;;18.13;;
19879;SDS011;10102;50.828;4.416;2023-02-11T08:24:56;54.15;;;19.20;;
19879;SDS011;10102;50.828;4.416;2023-02-11T08:27:22;39.22;;;17.83;;
19879;SDS011;10102;50.828;4.416;2023-02-11T08:29:50;41.58;;;18.98;;
19879;SDS011;10102;50.828;4.416;2023-02-11T08:32:17;40.55;;;18.38;;
19879;SDS011;10102;50.828;4.416;2023-02-11T08:34:43;45.30;;;18.70;;
19879;SDS011;10102;50.828;4.416;2023-02-11T08:37:09;39.90;;;18.13;;
19879;SDS011;10102;50.828;4.416;2023-02-11T08:39:35;42.30;;;17.48;;
19879;SDS011;10102;50.828;4.416;2023-02-11T08:42:00;45.47;;;19.08;;
19879;SDS011;10102;50.828;4.416;2023-02-11T08:44:26;43.38;;;19.38;;
19879;SDS011;10102;50.828;4.416;2023-02-11T08:46:52;47.17;;;19.23;;
19879;SDS011;10102;50.828;4.416;2023-02-11T08:49:18;45.63;;;18.88;;
19879;SDS011;10102;50.828;4.416;2023-02-11T08:51:45;44.13;;;18.95;;
19879;SDS011;10102;50.828;4.416;2023-02-11T08:54:11;44.00;;;18.70;;
19879;SDS011;10102;50.828;4.416;2023-02-11T08:56:37;39.97;;;17.88;;
19879;SDS011;10102;50.828;4.416;2023-02-11T08:59:03;44.90;;;18.45;;
19879;SDS011;10102;50.828;4.416;2023-02-11T09:01:30;48.88;;;18.83;;
19879;SDS011;10102;50.828;4.416;2023-02-11T09:03:56;46.30;;;19.73;;
19879;SDS011;10102;50.828;4.416;2023-02-11T09:06:23;45.17;;;19.80;;
19879;SDS011;10102;50.828;4.416;2023-02-11T09:08:51;41.70;;;18.58;;
19879;SDS011;10102;50.828;4.416;2023-02-11T09:11:21;46.60;;;17.40;;
19879;SDS011;10102;50.828;4.416;2023-02-11T09:13:52;46.45;;;19.75;;
19879;SDS011;10102;50.828;4.416;2023-02-11T09:16:25;46.60;;;19.02;;
19879;SDS011;10102;50.828;4.416;2023-02-11T09:18:56;45.63;;;20.33;;
19879;SDS011;10102;50.828;4.416;2023-02-11T09:21:23;49.90;;;20.05;;
19879;SDS011;10102;50.828;4.416;2023-02-11T09:23:50;53.88;;;20.38;;
19879;SDS011;10102;50.828;4.416;2023-02-11T09:26:17;57.83;;;20.73;;
19879;SDS011;10102;50.828;4.416;2023-02-11T09:28:46;47.55;;;19.85;;
19879;SDS011;10102;50.828;4.416;2023-02-11T09:31:13;48.05;;;20.33;;
19879;SDS011;10102;50.828;4.416;2023-02-11T09:33:42;49.95;;;22.13;;
19879;SDS011;10102;50.828;4.416;2023-02-11T09:36:17;43.83;;;20.05;;
19879;SDS011;10102;50.828;4.416;2023-02-11T09:38:45;48.38;;;20.33;;
19879;SDS011;10102;50.828;4.416;2023-02-11T09:44:19;59.67;;;20.08;;
19879;SDS011;10102;50.828;4.416;2023-02-11T09:46:52;56.38;;;21.23;;
19879;SDS011;10102;50.828;4.416;2023-02-11T09:49:34;56.33;;;20.38;;
19879;SDS011;10102;50.828;4.416;2023-02-11T09:54:57;47.45;;;20.15;;
19879;SDS011;10102;50.828;4.416;2023-02-11T09:57:35;54.88;;;22.35;;
19879;SDS011;10102;50.828;4.416;2023-02-11T10:00:23;51.90;;;22.13;;
19879;SDS011;10102;50.828;4.416;2023-02-11T10:09:12;57.90;;;22.02;;
19879;SDS011;10102;50.828;4.416;2023-02-11T10:20:24;51.88;;;21.52;;
19879;SDS011;10102;50.828;4.416;2023-02-11T10:23:00;38.22;;;19.38;;
19879;SDS011;10102;50.828;4.416;2023-02-11T10:25:43;55.10;;;21.33;;
19879;SDS011;10102;50.828;4.416;2023-02-11T10:31:02;50.08;;;21.13;;
19879;SDS011;10102;50.828;4.416;2023-02-11T10:36:36;49.17;;;21.25;;
19879;SDS011;10102;50.828;4.416;2023-02-11T10:39:19;48.40;;;21.60;;
19879;SDS011;10102;50.828;4.416;2023-02-11T10:44:29;60.90;;;23.33;;
19879;SDS011;10102;50.828;4.416;2023-02-11T10:47:04;53.90;;;22.63;;
19879;SDS011;10102;50.828;4.416;2023-02-11T10:49:53;59.50;;;22.20;;
19879;SDS011;10102;50.828;4.416;2023-02-11T10:52:23;51.95;;;22.50;;
19879;SDS011;10102;50.828;4.416;2023-02-11T10:54:57;51.67;;;22.65;;
19879;SDS011;10102;50.828;4.416;2023-02-11T11:02:53;56.53;;;22.92;;
19879;SDS011;10102;50.828;4.416;2023-02-11T11:08:10;54.45;;;23.73;;
19879;SDS011;10102;50.828;4.416;2023-02-11T11:10:44;56.53;;;22.75;;
19879;SDS011;10102;50.828;4.416;2023-02-11T11:13:31;53.20;;;22.75;;
19879;SDS011;10102;50.828;4.416;2023-02-11T11:18:38;73.40;;;33.22;;
19879;SDS011;10102;50.828;4.416;2023-02-11T11:24:17;54.13;;;21.83;;
19879;SDS011;10102;50.828;4.416;2023-02-11T11:26:54;56.88;;;24.58;;
19879;SDS011;10102;50.828;4.416;2023-02-11T11:31:57;61.78;;;25.05;;
19879;SDS011;10102;50.828;4.416;2023-02-11T11:34:33;64.88;;;26.48;;
19879;SDS011;10102;50.828;4.416;2023-02-11T11:37:12;54.28;;;25.45;;
19879;SDS011;10102;50.828;4.416;2023-02-11T11:40:06;60.15;;;25.95;;
19879;SDS011;10102;50.828;4.416;2023-02-11T11:43:00;58.40;;;26.52;;
19879;SDS011;10102;50.828;4.416;2023-02-11T11:45:29;61.80;;;25.63;;
19879;SDS011;10102;50.828;4.416;2023-02-11T11:48:05;58.03;;;25.33;;
19879;SDS011;10102;50.828;4.416;2023-02-11T11:50:43;60.13;;;25.77;;
19879;SDS011;10102;50.828;4.416;2023-02-11T11:56:03;61.35;;;25.70;;
19879;SDS011;10102;50.828;4.416;2023-02-11T11:58:40;57.25;;;26.05;;
19879;SDS011;10102;50.828;4.416;2023-02-11T12:09:49;55.55;;;25.20;;
19879;SDS011;10102;50.828;4.416;2023-02-11T12:15:32;60.08;;;23.98;;
19879;SDS011;10102;50.828;4.416;2023-02-11T12:18:12;58.60;;;23.80;;
19879;SDS011;10102;50.828;4.416;2023-02-11T12:26:18;55.25;;;26.10;;
19879;SDS011;10102;50.828;4.416;2023-02-11T12:29:06;101.75;;;41.47;;
19879;SDS011;10102;50.828;4.416;2023-02-11T12:32:26;69.78;;;29.15;;
19879;SDS011;10102;50.828;4.416;2023-02-11T12:34:38;59.58;;;25.45;;
19879;SDS011;10102;50.828;4.416;2023-02-11T12:49:04;58.65;;;26.50;;
19879;SDS011;10102;50.828;4.416;2023-02-11T12:51:48;62.15;;;25.20;;
19879;SDS011;10102;50.828;4.416;2023-02-11T12:54:44;64.20;;;26.23;;
19879;SDS011;10102;50.828;4.416;2023-02-11T12:57:25;63.88;;;27.33;;
19879;SDS011;10102;50.828;4.416;2023-02-11T13:05:04;59.50;;;27.90;;
19879;SDS011;10102;50.828;4.416;2023-02-11T13:08:42;79.75;;;34.10;;
19879;SDS011;10102;50.828;4.416;2023-02-11T13:11:02;106.82;;;45.83;;
19879;SDS011;10102;50.828;4.416;2023-02-11T13:13:33;100.43;;;43.30;;
19879;SDS011;10102;50.828;4.416;2023-02-11T13:16:06;66.85;;;28.85;;
19879;SDS011;10102;50.828;4.416;2023-02-11T13:29:25;63.35;;;26.45;;
19879;SDS011;10102;50.828;4.416;2023-02-11T13:37:27;65.30;;;28.83;;
19879;SDS011;10102;50.828;4.416;2023-02-11T13:40:05;67.80;;;28.75;;
19879;SDS011;10102;50.828;4.416;2023-02-11T13:43:21;62.97;;;28.63;;
19879;SDS011;10102;50.828;4.416;2023-02-11T13:45:50;60.97;;;26.45;;
19879;SDS011;10102;50.828;4.416;2023-02-11T13:48:25;63.50;;;27.90;;
19879;SDS011;10102;50.828;4.416;2023-02-11T13:50:59;61.15;;;27.52;;
19879;SDS011;10102;50.828;4.416;2023-02-11T13:56:22;69.03;;;29.05;;
19879;SDS011;10102;50.828;4.416;2023-02-11T13:58:48;65.80;;;29.23;;
19879;SDS011;10102;50.828;4.416;2023-02-11T14:04:20;75.70;;;34.05;;
19879;SDS011;10102;50.828;4.416;2023-02-11T14:16:06;73.40;;;31.80;;
19879;SDS011;10102;50.828;4.416;2023-02-11T14:18:38;74.63;;;30.88;;
19879;SDS011;10102;50.828;4.416;2023-02-11T14:29:26;71.75;;;28.88;;
19879;SDS011;10102;50.828;4.416;2023-02-11T14:42:54;61.13;;;29.20;;
19879;SDS011;10102;50.828;4.416;2023-02-11T14:45:26;78.15;;;32.97;;
19879;SDS011;10102;50.828;4.416;2023-02-11T14:47:55;66.22;;;29.92;;
19879;SDS011;10102;50.828;4.416;2023-02-11T14:50:38;158.63;;;73.95;;
19879;SDS011;10102;50.828;4.416;2023-02-11T14:53:18;58.38;;;28.15;;
19879;SDS011;10102;50.828;4.416;2023-02-11T14:55:48;64.10;;;29.40;;
19879;SDS011;10102;50.828;4.416;2023-02-11T14:58:19;99.22;;;44.47;;
19879;SDS011;10102;50.828;4.416;2023-02-11T15:01:20;57.20;;;29.17;;
19879;SDS011;10102;50.828;4.416;2023-02-11T15:03:47;185.13;;;84.53;;
19879;SDS011;10102;50.828;4.416;2023-02-11T15:06:17;58.60;;;28.38;;
19879;SDS011;10102;50.828;4.416;2023-02-11T15:08:47;57.65;;;29.23;;
19879;SDS011;10102;50.828;4.416;2023-02-11T15:11:24;63.28;;;29.25;;
19879;SDS011;10102;50.828;4.416;2023-02-11T15:13:52;61.20;;;29.95;;
19879;SDS011;10102;50.828;4.416;2023-02-11T15:16:24;69.25;;;30.00;;
19879;SDS011;10102;50.828;4.416;2023-02-11T15:18:54;61.65;;;30.98;;
19879;SDS011;10102;50.828;4.416;2023-02-11T15:21:31;74.40;;;32.97;;
19879;SDS011;10102;50.828;4.416;2023-02-11T15:26:25;59.28;;;29.50;;
19879;SDS011;10102;50.828;4.416;2023-02-11T15:28:52;61.70;;;29.63;;
19879;SDS011;10102;50.828;4.416;2023-02-11T15:31:22;60.55;;;28.25;;
19879;SDS011;10102;50.828;4.416;2023-02-11T15:33:55;61.80;;;28.42;;
19879;SDS011;10102;50.828;4.416;2023-02-11T15:36:31;57.25;;;28.10;;
19879;SDS011;10102;50.828;4.416;2023-02-11T15:39:26;63.50;;;30.13;;
19879;SDS011;10102;50.828;4.416;2023-02-11T15:42:14;62.25;;;30.73;;
19879;SDS011;10102;50.828;4.416;2023-02-11T15:44:44;73.70;;;34.58;;
19879;SDS011;10102;50.828;4.416;2023-02-11T15:47:18;62.75;;;29.67;;
19879;SDS011;10102;50.828;4.416;2023-02-11T15:49:47;62.55;;;30.85;;
19879;SDS011;10102;50.828;4.416;2023-02-11T15:52:14;67.80;;;33.05;;
19879;SDS011;10102;50.828;4.416;2023-02-11T15:54:53;60.65;;;29.30;;
19879;SDS011;10102;50.828;4.416;2023-02-11T15:57:23;74.50;;;33.28;;
19879;SDS011;10102;50.828;4.416;2023-02-11T15:59:51;66.63;;;31.70;;
19879;SDS011;10102;50.828;4.416;2023-02-11T16:04:48;63.20;;;28.95;;
19879;SDS011;10102;50.828;4.416;2023-02-11T16:07:42;70.45;;;32.30;;
19879;SDS011;10102;50.828;4.416;2023-02-11T16:10:21;56.90;;;29.73;;
19879;SDS011;10102;50.828;4.416;2023-02-11T16:18:11;62.28;;;30.23;;
19879;SDS011;10102;50.828;4.416;2023-02-11T16:20:49;58.47;;;28.88;;
19879;SDS011;10102;50.828;4.416;2023-02-11T16:23:24;58.63;;;29.77;;
19879;SDS011;10102;50.828;4.416;2023-02-11T16:26:48;63.17;;;30.15;;
19879;SDS011;10102;50.828;4.416;2023-02-11T16:28:50;61.03;;;32.00;;
19879;SDS011;10102;50.828;4.416;2023-02-11T16:31:16;54.60;;;29.00;;
19879;SDS011;10102;50.828;4.416;2023-02-11T16:33:42;55.50;;;30.08;;
19879;SDS011;10102;50.828;4.416;2023-02-11T16:36:10;50.90;;;29.35;;
19879;SDS011;10102;50.828;4.416;2023-02-11T16:38:39;57.33;;;29.73;;
19879;SDS011;10102;50.828;4.416;2023-02-11T16:41:05;59.72;;;30.40;;
19879;SDS011;10102;50.828;4.416;2023-02-11T16:43:31;57.47;;;29.83;;
19879;SDS011;10102;50.828;4.416;2023-02-11T16:45:57;62.03;;;31.48;;
19879;SDS011;10102;50.828;4.416;2023-02-11T16:48:23;63.55;;;31.23;;
19879;SDS011;10102;50.828;4.416;2023-02-11T16:50:49;62.42;;;31.25;;
19879;SDS011;10102;50.828;4.416;2023-02-11T16:53:17;56.13;;;31.38;;
19879;SDS011;10102;50.828;4.416;2023-02-11T16:55:47;53.08;;;30.15;;
19879;SDS011;10102;50.828;4.416;2023-02-11T16:58:13;61.45;;;31.58;;
19879;SDS011;10102;50.828;4.416;2023-02-11T17:00:39;56.47;;;30.67;;
19879;SDS011;10102;50.828;4.416;2023-02-11T17:03:09;59.20;;;32.65;;
19879;SDS011;10102;50.828;4.416;2023-02-11T17:05:43;55.38;;;30.30;;
19879;SDS011;10102;50.828;4.416;2023-02-11T17:08:11;58.38;;;30.58;;
19879;SDS011;10102;50.828;4.416;2023-02-11T17:10:36;59.40;;;31.52;;
19879;SDS011;10102;50.828;4.416;2023-02-11T17:13:02;60.28;;;30.73;;
19879;SDS011;10102;50.828;4.416;2023-02-11T17:15:31;65.07;;;32.30;;
19879;SDS011;10102;50.828;4.416;2023-02-11T17:17:57;64.53;;;31.63;;
19879;SDS011;10102;50.828;4.416;2023-02-11T17:20:24;60.72;;;30.60;;
19879;SDS011;10102;50.828;4.416;2023-02-11T17:22:50;56.05;;;31.08;;
19879;SDS011;10102;50.828;4.416;2023-02-11T17:25:17;64.70;;;32.53;;
19879;SDS011;10102;50.828;4.416;2023-02-11T17:27:43;60.00;;;31.98;;
19879;SDS011;10102;50.828;4.416;2023-02-11T17:30:09;59.95;;;30.23;;
19879;SDS011;10102;50.828;4.416;2023-02-11T17:32:37;59.05;;;29.85;;
19879;SDS011;10102;50.828;4.416;2023-02-11T17:35:04;64.70;;;31.90;;
19879;SDS011;10102;50.828;4.416;2023-02-11T17:39:59;58.88;;;30.90;;
19879;SDS011;10102;50.828;4.416;2023-02-11T17:42:26;61.30;;;32.28;;
19879;SDS011;10102;50.828;4.416;2023-02-11T17:44:53;59.10;;;30.45;;
19879;SDS011;10102;50.828;4.416;2023-02-11T17:47:24;49.20;;;28.73;;
19879;SDS011;10102;50.828;4.416;2023-02-11T17:49:50;57.75;;;30.63;;
19879;SDS011;10102;50.828;4.416;2023-02-11T17:52:16;65.18;;;33.20;;
19879;SDS011;10102;50.828;4.416;2023-02-11T17:54:43;64.53;;;35.47;;
19879;SDS011;10102;50.828;4.416;2023-02-11T17:57:11;61.63;;;31.90;;
19879;SDS011;10102;50.828;4.416;2023-02-11T17:59:38;64.15;;;31.45;;
19879;SDS011;10102;50.828;4.416;2023-02-11T18:02:04;59.90;;;30.23;;
19879;SDS011;10102;50.828;4.416;2023-02-11T18:04:29;56.70;;;30.65;;
19879;SDS011;10102;50.828;4.416;2023-02-11T18:06:56;58.85;;;30.27;;
19879;SDS011;10102;50.828;4.416;2023-02-11T18:09:22;60.88;;;31.33;;